createdAt,value
2022-12-12T00:01:47.249Z,100174.95
2022-12-12T00:05:47.441Z,100168.41
2022-12-12T00:09:46.471Z,100162.41
2022-12-12T00:13:46.289Z,100163.31
2022-12-12T00:17:45.028Z,100163.73
2022-12-12T00:21:44.392Z,100162.33
2022-12-12T00:25:43.511Z,100160.44
2022-12-12T00:29:42.706Z,100158.35
2022-12-12T00:33:41.814Z,100159.58
2022-12-12T00:37:40.789Z,100162.50
2022-12-12T00:41:39.986Z,100162.48
2022-12-12T00:45:39.530Z,100154.39
2022-12-12T00:49:38.448Z,100161.21
2022-12-12T00:53:38.688Z,100162.84
2022-12-12T00:57:37.890Z,100162.98
2022-12-12T01:01:37.205Z,100164.23
2022-12-12T01:05:37.288Z,100160.61
2022-12-12T01:09:36.872Z,100160.92
2022-12-12T01:13:35.670Z,100169.40
2022-12-12T01:17:37.939Z,100158.84
2022-12-12T01:21:36.931Z,100161.24
2022-12-12T01:25:35.856Z,100153.29
2022-12-12T01:29:35.008Z,100150.67
2022-12-12T01:33:34.413Z,100151.00
2022-12-12T01:37:33.264Z,100145.79
2022-12-12T01:41:34.184Z,100138.81
2022-12-12T01:45:52.484Z,100133.23
2022-12-12T01:50:03.088Z,100140.59
2022-12-12T01:54:07.427Z,100136.25
2022-12-12T01:58:07.140Z,100128.48
2022-12-12T02:02:06.616Z,100130.90
2022-12-12T02:06:08.454Z,100127.27
2022-12-12T02:10:08.488Z,100121.94
2022-12-12T02:14:08.006Z,100112.77
2022-12-12T02:18:25.583Z,100115.48
2022-12-12T02:22:57.325Z,100114.74
2022-12-12T02:26:56.261Z,100109.91
2022-12-12T02:31:14.421Z,100105.05
2022-12-12T02:35:47.887Z,100106.21
2022-12-12T02:40:07.257Z,100103.05
2022-12-12T02:44:24.306Z,100094.52
2022-12-12T02:48:49.829Z,100100.36
2022-12-12T02:52:49.447Z,100097.55
2022-12-12T02:56:53.770Z,100095.41
2022-12-12T03:01:11.605Z,100087.91
2022-12-12T03:05:29.231Z,100090.98
2022-12-12T03:09:47.428Z,100088.21
2022-12-12T03:13:57.835Z,100087.02
2022-12-12T03:18:02.168Z,100089.71
2022-12-12T03:22:12.231Z,100085.89
2022-12-12T03:26:17.367Z,100088.64
2022-12-12T03:30:19.929Z,100082.60
2022-12-12T03:33:59.210Z,100082.95
2022-12-12T03:38:02.316Z,100077.04
2022-12-12T03:42:06.301Z,100071.00
2022-12-12T03:46:14.583Z,100064.48
2022-12-12T03:50:22.024Z,100061.59
2022-12-12T03:54:27.075Z,100060.92
2022-12-12T03:58:52.060Z,100053.86
2022-12-12T04:02:59.512Z,100050.77
2022-12-12T04:06:32.251Z,100047.85
2022-12-12T04:11:12.571Z,100044.63
2022-12-12T04:15:12.332Z,100041.89
2022-12-12T04:19:38.786Z,100037.78
2022-12-12T04:23:46.627Z,100029.20
2022-12-12T04:27:50.125Z,100029.27
2022-12-12T04:31:52.886Z,100032.12
2022-12-12T04:35:53.395Z,100026.83
2022-12-12T04:39:54.631Z,100023.61
2022-12-12T04:43:55.730Z,100023.70
2022-12-12T04:47:56.840Z,100020.07
2022-12-12T04:52:02.340Z,100011.46
2022-12-12T04:56:05.506Z,100014.60
2022-12-12T05:00:05.212Z,100013.07
2022-12-12T05:04:07.870Z,100010.33
2022-12-12T05:08:09.824Z,100006.42
2022-12-12T05:12:09.565Z,99998.23
2022-12-12T05:16:32.781Z,99995.20
2022-12-12T05:20:32.096Z,99991.91
2022-12-12T05:24:32.147Z,99990.91
2022-12-12T05:28:32.618Z,99992.86
2022-12-12T05:32:32.195Z,99994.22
2022-12-12T05:36:31.265Z,99990.41
2022-12-12T05:40:31.083Z,99997.46
2022-12-12T05:44:30.190Z,99991.30
2022-12-12T05:48:29.916Z,99989.30
2022-12-12T05:52:29.682Z,99990.80
2022-12-12T05:56:28.559Z,99985.77
2022-12-12T06:00:28.157Z,99977.23
2022-12-12T06:04:27.445Z,99980.61
2022-12-12T06:08:26.400Z,99973.65
2022-12-12T06:12:25.525Z,99977.35
2022-12-12T06:16:24.850Z,99975.20
2022-12-12T06:20:24.483Z,99980.80
2022-12-12T06:24:24.221Z,99976.19
2022-12-12T06:28:23.666Z,99976.42
2022-12-12T06:32:22.828Z,99976.29
2022-12-12T06:36:26.185Z,99970.42
2022-12-12T06:40:25.049Z,99966.11
2022-12-12T06:44:24.261Z,99963.77
2022-12-12T06:48:23.547Z,99964.85
2022-12-12T06:52:22.730Z,99966.83
2022-12-12T06:56:23.726Z,99965.65
2022-12-12T07:00:23.126Z,99956.39
2022-12-12T07:04:22.147Z,99960.42
2022-12-12T07:08:21.704Z,99950.62
2022-12-12T07:12:20.848Z,99954.14
2022-12-12T07:16:20.583Z,99950.03
2022-12-12T07:20:20.591Z,99955.48
2022-12-12T07:24:19.622Z,99956.52
2022-12-12T07:28:18.804Z,99960.09
2022-12-12T07:32:17.872Z,99951.40
2022-12-12T07:36:17.534Z,99950.67
2022-12-12T07:40:16.759Z,99946.23
2022-12-12T07:44:16.874Z,99950.06
2022-12-12T07:48:15.774Z,99953.98
2022-12-12T07:52:29.026Z,99956.63
2022-12-12T07:56:27.770Z,99950.55
2022-12-12T08:00:27.509Z,99945.56
2022-12-12T08:04:26.566Z,99944.88
2022-12-12T08:08:25.936Z,99946.60
2022-12-12T08:12:24.935Z,99946.36
2022-12-12T08:16:25.600Z,99945.69
2022-12-12T08:20:25.073Z,99946.95
2022-12-12T08:24:24.288Z,99943.30
2022-12-12T08:28:23.634Z,99940.64
2022-12-12T08:32:22.843Z,99939.55
2022-12-12T08:36:23.919Z,99946.73
2022-12-12T08:40:23.622Z,99952.64
2022-12-12T08:44:23.131Z,99951.05
2022-12-12T08:48:21.887Z,99939.88
2022-12-12T08:52:21.245Z,99956.20
2022-12-12T08:56:21.253Z,99952.16
2022-12-12T09:00:21.084Z,99941.85
2022-12-12T09:04:20.044Z,99935.09
2022-12-12T09:08:19.459Z,99920.37
2022-12-12T09:12:18.505Z,99934.73
2022-12-12T09:16:17.850Z,99935.56
2022-12-12T09:20:17.266Z,99936.59
2022-12-12T09:24:17.031Z,99938.31
2022-12-12T09:28:17.205Z,99941.17
2022-12-12T09:32:21.264Z,99930.64
2022-12-12T09:36:37.529Z,99940.64
2022-12-12T09:40:49.211Z,99939.42
2022-12-12T09:44:48.848Z,99932.91
2022-12-12T09:48:48.505Z,99926.66
2022-12-12T09:52:47.790Z,99925.66
2022-12-12T09:56:52.902Z,99916.86
2022-12-12T10:01:07.735Z,99915.30
2022-12-12T10:05:25.857Z,99915.27
2022-12-12T10:09:30.552Z,99913.65
2022-12-12T10:13:43.723Z,99910.29
2022-12-12T10:17:45.516Z,99915.20
2022-12-12T10:21:47.053Z,99917.86
2022-12-12T10:25:25.508Z,99916.00
2022-12-12T10:29:25.935Z,99913.28
2022-12-12T10:33:45.447Z,99908.81
2022-12-12T10:42:08.204Z,99900.88
2022-12-12T10:46:25.360Z,99901.07
2022-12-12T10:50:30.808Z,99904.92
2022-12-12T10:54:32.627Z,99904.48
2022-12-12T10:58:44.901Z,99895.98
2022-12-12T11:02:45.062Z,99892.66
2022-12-12T11:06:48.839Z,99896.48
2022-12-12T11:11:22.619Z,99890.95
2022-12-12T11:15:44.762Z,99891.67
2022-12-12T11:18:59.667Z,99893.35
2022-12-12T11:22:58.997Z,99902.15
2022-12-12T11:27:00.355Z,99886.34
2022-12-12T11:31:02.090Z,99887.02
2022-12-12T11:35:05.340Z,99888.77
2022-12-12T11:38:40.596Z,99887.16
2022-12-12T11:42:40.935Z,99889.20
2022-12-12T11:46:39.972Z,99887.04
2022-12-12T11:50:46.018Z,99891.27
2022-12-12T11:54:45.135Z,99884.80
2022-12-12T11:58:43.858Z,99888.54
2022-12-12T12:02:49.376Z,99885.29
2022-12-12T12:07:07.283Z,99888.11
2022-12-12T12:11:26.009Z,99882.64
2022-12-12T12:15:44.082Z,99882.71
2022-12-12T12:19:53.418Z,99881.19
2022-12-12T12:23:59.559Z,99887.73
2022-12-12T12:32:44.142Z,99882.24
2022-12-12T12:36:49.196Z,99878.40
2022-12-12T12:41:15.274Z,99876.59
2022-12-12T12:45:15.166Z,99878.61
2022-12-12T12:49:20.738Z,99875.11
2022-12-12T12:53:23.319Z,99875.52
2022-12-12T12:57:36.896Z,99878.12
2022-12-12T13:01:39.337Z,99876.52
2022-12-12T13:05:50.332Z,99873.80
2022-12-12T13:10:08.055Z,99880.40
2022-12-12T13:14:19.494Z,99879.02
2022-12-12T13:18:19.173Z,99880.08
2022-12-12T13:22:23.813Z,99886.09
2022-12-12T13:26:35.491Z,99892.10
2022-12-12T13:30:55.389Z,99896.85
2022-12-12T13:34:57.096Z,99904.21
2022-12-12T13:38:57.673Z,99895.69
2022-12-12T13:43:02.697Z,99904.55
2022-12-12T13:47:29.877Z,99908.60
2022-12-12T13:51:28.954Z,99906.63
2022-12-12T13:55:27.959Z,99910.45
2022-12-12T13:59:27.497Z,99916.34
2022-12-12T14:03:46.041Z,99920.30
2022-12-12T14:07:07.091Z,99922.43
2022-12-12T14:11:08.315Z,99924.89
2022-12-12T14:15:09.140Z,99926.96
2022-12-12T14:19:21.268Z,99929.48
2022-12-12T14:23:20.630Z,99920.80
2022-12-12T14:27:40.091Z,99923.35
2022-12-12T14:31:41.919Z,99929.84
2022-12-12T14:35:47.785Z,99930.35
2022-12-12T14:39:54.070Z,99932.42
2022-12-12T14:44:36.928Z,99923.58
2022-12-12T14:48:17.110Z,99932.00
2022-12-12T14:52:18.433Z,99934.59
2022-12-12T14:56:19.119Z,99934.74
2022-12-12T15:00:19.567Z,99924.72
2022-12-12T15:04:28.020Z,99925.27
2022-12-12T15:08:27.214Z,99924.91
2022-12-12T15:12:32.607Z,99922.67
2022-12-12T15:16:48.534Z,99911.59
2022-12-12T15:20:48.045Z,99920.73
2022-12-12T15:24:48.203Z,99911.40
2022-12-12T15:28:47.859Z,99908.51
2022-12-12T15:33:14.919Z,99906.98
2022-12-12T15:36:28.914Z,99909.30
2022-12-12T15:40:34.992Z,99917.88
2022-12-12T15:44:34.589Z,99909.49
2022-12-12T15:48:34.773Z,99906.46
2022-12-12T15:53:00.967Z,99894.39
2022-12-12T15:56:13.567Z,99905.73
2022-12-12T16:00:32.041Z,99894.58
2022-12-12T16:04:31.451Z,99899.77
2022-12-12T16:08:36.089Z,99901.80
2022-12-12T16:12:54.456Z,99896.73
2022-12-12T16:17:17.066Z,99910.80
2022-12-12T16:21:16.179Z,99911.02
2022-12-12T16:25:20.047Z,99904.98
2022-12-12T16:29:20.472Z,99914.52
2022-12-12T16:33:38.735Z,99910.38
2022-12-12T16:37:38.316Z,99913.66
2022-12-12T16:41:41.851Z,99911.60
2022-12-12T16:45:17.024Z,99907.09
2022-12-12T16:48:54.760Z,99903.77
2022-12-12T16:53:08.862Z,99902.71
2022-12-12T16:57:08.147Z,99889.23
2022-12-12T17:01:08.699Z,99892.63
2022-12-12T17:05:13.077Z,99896.44
2022-12-12T17:09:30.003Z,99891.81
2022-12-12T17:13:29.916Z,99887.50
2022-12-12T17:17:30.327Z,99888.11
2022-12-12T17:21:30.028Z,99897.13
2022-12-12T17:25:29.347Z,99894.33
2022-12-12T17:29:29.028Z,99899.42
2022-12-12T17:33:29.189Z,99903.17
2022-12-12T17:37:29.203Z,99893.80
2022-12-12T17:41:27.998Z,99899.48
2022-12-12T17:45:27.421Z,99889.84
2022-12-12T17:49:26.897Z,99903.02
2022-12-12T17:53:26.783Z,99904.79
2022-12-12T17:57:26.025Z,99907.95
2022-12-12T18:01:29.608Z,99910.23
2022-12-12T18:05:43.214Z,99932.59
2022-12-12T18:09:42.991Z,99920.59
2022-12-12T18:13:45.489Z,99919.58
2022-12-12T18:17:45.760Z,99922.55
2022-12-12T18:22:02.209Z,99924.59
2022-12-12T18:26:07.453Z,99923.04
2022-12-12T18:30:07.183Z,99932.95
2022-12-12T18:34:06.960Z,99921.92
2022-12-12T18:38:07.489Z,99926.57
2022-12-12T18:41:44.054Z,99922.48
2022-12-12T18:45:43.530Z,99933.52
2022-12-12T18:49:56.430Z,99932.44
2022-12-12T18:53:59.758Z,99931.85
2022-12-12T18:57:59.488Z,99933.61
2022-12-12T19:01:59.250Z,99929.32
2022-12-12T19:05:58.647Z,99934.65
2022-12-12T19:10:17.315Z,99937.73
2022-12-12T19:13:35.521Z,99937.05
2022-12-12T19:17:35.032Z,99943.11
2022-12-12T19:21:35.352Z,99948.37
2022-12-12T19:25:40.896Z,99944.63
2022-12-12T19:29:42.366Z,99944.29
2022-12-12T19:33:42.554Z,99946.31
2022-12-12T19:37:42.068Z,99949.94
2022-12-12T19:41:42.921Z,99950.98
2022-12-12T19:45:42.236Z,99956.94
2022-12-12T19:53:58.489Z,99963.73
2022-12-12T19:57:57.749Z,99970.19
2022-12-12T20:01:57.484Z,99972.52
2022-12-12T20:06:00.383Z,99975.84
2022-12-12T20:09:35.798Z,99983.76
2022-12-12T20:13:36.557Z,99978.21
2022-12-12T20:17:13.634Z,99984.81
2022-12-12T20:21:29.948Z,99980.00
2022-12-12T20:25:33.968Z,99981.92
2022-12-12T20:29:33.029Z,99984.59
2022-12-12T20:33:32.741Z,99982.11
2022-12-12T20:37:33.327Z,99980.96
2022-12-12T20:41:36.973Z,99980.65
2022-12-12T20:45:50.550Z,99988.39
2022-12-12T20:49:50.866Z,99994.30
2022-12-12T20:54:10.895Z,99997.23
2022-12-12T20:57:28.045Z,100001.73
2022-12-12T21:01:35.536Z,100003.86
2022-12-12T21:05:35.289Z,100009.17
2022-12-12T21:09:34.513Z,100015.64
2022-12-12T21:13:34.802Z,100016.64
2022-12-12T21:17:36.727Z,100024.46
2022-12-12T21:21:30.971Z,100026.98
2022-12-12T21:24:49.886Z,100027.08
2022-12-12T21:29:04.873Z,100027.41
2022-12-12T21:33:04.201Z,100027.44
2022-12-12T21:37:03.199Z,100026.92
2022-12-12T21:41:06.476Z,100023.84
2022-12-12T21:45:06.676Z,100029.32
2022-12-12T21:49:25.075Z,100026.83
2022-12-12T21:53:39.026Z,100027.33
2022-12-12T21:57:57.147Z,100041.22
2022-12-12T22:01:17.554Z,100042.55
2022-12-12T22:05:17.300Z,100036.13
2022-12-12T22:09:16.454Z,100036.02
2022-12-12T22:13:15.744Z,100049.16
2022-12-12T22:17:15.246Z,100057.59
2022-12-12T22:21:16.568Z,100055.60
2022-12-12T22:25:17.111Z,100064.21
2022-12-12T22:28:55.132Z,100053.35
2022-12-12T22:32:55.108Z,100047.53
2022-12-12T22:36:54.281Z,100046.69
2022-12-12T22:40:54.769Z,100041.70
2022-12-12T22:44:54.368Z,100042.18
2022-12-12T22:48:59.531Z,100048.23
2022-12-12T22:52:59.257Z,100055.31
2022-12-12T22:56:58.848Z,100057.56
2022-12-12T23:01:05.700Z,100066.13
2022-12-12T23:05:05.259Z,100063.27
2022-12-12T23:09:07.549Z,100070.14
2022-12-12T23:12:42.448Z,100068.77
2022-12-12T23:16:42.081Z,100075.42
2022-12-12T23:20:40.920Z,100074.54
2022-12-12T23:24:40.236Z,100083.02
2022-12-12T23:28:39.789Z,100071.30
2022-12-12T23:32:39.075Z,100072.95
2022-12-12T23:36:38.834Z,100083.10
2022-12-12T23:40:38.180Z,100080.39
2022-12-12T23:44:37.591Z,100080.91
2022-12-12T23:48:37.060Z,100086.77
2022-12-12T23:52:36.379Z,100083.27
2022-12-12T23:56:54.188Z,100073.89
